sensor_id;sensor_type;location;lat;lon;timestamp;P1;durP1;ratioP1;P2;durP2;ratioP2
5345;SDS011;2695;49.444;11.054;2022-10-31T00:01:48;22.20;;;8.73;;
5345;SDS011;2695;49.444;11.054;2022-10-31T00:04:20;12.30;;;7.40;;
5345;SDS011;2695;49.444;11.054;2022-10-31T00:06:48;16.37;;;8.30;;
5345;SDS011;2695;49.444;11.054;2022-10-31T00:09:21;17.67;;;8.57;;
5345;SDS011;2695;49.444;11.054;2022-10-31T00:11:52;20.70;;;8.23;;
5345;SDS011;2695;49.444;11.054;2022-10-31T00:14:29;21.33;;;8.20;;
5345;SDS011;2695;49.444;11.054;2022-10-31T00:16:57;15.70;;;7.90;;
5345;SDS011;2695;49.444;11.054;2022-10-31T00:19:26;14.97;;;8.10;;
5345;SDS011;2695;49.444;11.054;2022-10-31T00:21:54;25.57;;;8.63;;
5345;SDS011;2695;49.444;11.054;2022-10-31T00:24:25;24.37;;;8.70;;
5345;SDS011;2695;49.444;11.054;2022-10-31T00:26:53;15.53;;;7.90;;
5345;SDS011;2695;49.444;11.054;2022-10-31T00:29:24;13.73;;;7.43;;
5345;SDS011;2695;49.444;11.054;2022-10-31T00:31:54;13.80;;;8.00;;
5345;SDS011;2695;49.444;11.054;2022-10-31T00:34:25;15.63;;;8.10;;
5345;SDS011;2695;49.444;11.054;2022-10-31T00:36:54;22.00;;;8.37;;
5345;SDS011;2695;49.444;11.054;2022-10-31T00:39:22;12.20;;;5.93;;
5345;SDS011;2695;49.444;11.054;2022-10-31T00:41:50;16.33;;;8.00;;
5345;SDS011;2695;49.444;11.054;2022-10-31T00:44:19;14.50;;;7.27;;
5345;SDS011;2695;49.444;11.054;2022-10-31T00:46:50;20.93;;;7.47;;
5345;SDS011;2695;49.444;11.054;2022-10-31T00:49:31;14.43;;;6.60;;
5345;SDS011;2695;49.444;11.054;2022-10-31T00:52:00;14.73;;;6.80;;
5345;SDS011;2695;49.444;11.054;2022-10-31T00:54:28;17.80;;;7.93;;
5345;SDS011;2695;49.444;11.054;2022-10-31T00:56:59;17.17;;;7.67;;
5345;SDS011;2695;49.444;11.054;2022-10-31T00:59:30;15.20;;;6.50;;
5345;SDS011;2695;49.444;11.054;2022-10-31T01:02:02;18.80;;;8.13;;
5345;SDS011;2695;49.444;11.054;2022-10-31T01:04:32;14.17;;;8.27;;
5345;SDS011;2695;49.444;11.054;2022-10-31T01:07:06;14.70;;;8.57;;
5345;SDS011;2695;49.444;11.054;2022-10-31T01:09:43;18.93;;;8.47;;
5345;SDS011;2695;49.444;11.054;2022-10-31T01:12:15;17.17;;;8.13;;
5345;SDS011;2695;49.444;11.054;2022-10-31T01:14:43;20.37;;;8.97;;
5345;SDS011;2695;49.444;11.054;2022-10-31T01:17:15;17.63;;;8.00;;
5345;SDS011;2695;49.444;11.054;2022-10-31T01:19:50;15.20;;;9.80;;
5345;SDS011;2695;49.444;11.054;2022-10-31T01:22:19;14.87;;;8.30;;
5345;SDS011;2695;49.444;11.054;2022-10-31T01:24:47;13.87;;;8.87;;
5345;SDS011;2695;49.444;11.054;2022-10-31T01:27:15;18.13;;;9.47;;
5345;SDS011;2695;49.444;11.054;2022-10-31T01:29:47;12.87;;;7.87;;
5345;SDS011;2695;49.444;11.054;2022-10-31T01:32:15;14.97;;;7.57;;
5345;SDS011;2695;49.444;11.054;2022-10-31T01:34:45;13.50;;;7.97;;
5345;SDS011;2695;49.444;11.054;2022-10-31T01:37:17;12.07;;;7.90;;
5345;SDS011;2695;49.444;11.054;2022-10-31T01:39:47;26.30;;;11.43;;
5345;SDS011;2695;49.444;11.054;2022-10-31T01:42:21;17.50;;;9.13;;
5345;SDS011;2695;49.444;11.054;2022-10-31T01:44:52;14.00;;;8.40;;
5345;SDS011;2695;49.444;11.054;2022-10-31T01:47:33;10.47;;;7.50;;
5345;SDS011;2695;49.444;11.054;2022-10-31T01:50:19;12.47;;;7.90;;
5345;SDS011;2695;49.444;11.054;2022-10-31T01:52:57;10.70;;;7.50;;
5345;SDS011;2695;49.444;11.054;2022-10-31T01:55:33;10.67;;;7.17;;
5345;SDS011;2695;49.444;11.054;2022-10-31T01:58:10;17.10;;;8.13;;
5345;SDS011;2695;49.444;11.054;2022-10-31T02:00:45;12.17;;;7.73;;
5345;SDS011;2695;49.444;11.054;2022-10-31T02:03:22;12.00;;;6.77;;
5345;SDS011;2695;49.444;11.054;2022-10-31T02:05:51;14.00;;;8.23;;
5345;SDS011;2695;49.444;11.054;2022-10-31T02:08:25;10.13;;;7.70;;
5345;SDS011;2695;49.444;11.054;2022-10-31T02:10:55;11.87;;;7.00;;
5345;SDS011;2695;49.444;11.054;2022-10-31T02:13:28;8.47;;;6.57;;
5345;SDS011;2695;49.444;11.054;2022-10-31T02:16:02;7.67;;;6.50;;
5345;SDS011;2695;49.444;11.054;2022-10-31T02:18:30;8.70;;;6.50;;
5345;SDS011;2695;49.444;11.054;2022-10-31T02:21:01;12.57;;;7.00;;
5345;SDS011;2695;49.444;11.054;2022-10-31T02:23:49;9.53;;;6.63;;
5345;SDS011;2695;49.444;11.054;2022-10-31T02:26:53;11.73;;;7.00;;
5345;SDS011;2695;49.444;11.054;2022-10-31T02:32:41;14.83;;;7.40;;
5345;SDS011;2695;49.444;11.054;2022-10-31T02:35:19;12.53;;;7.70;;
5345;SDS011;2695;49.444;11.054;2022-10-31T02:38:00;16.23;;;7.40;;
5345;SDS011;2695;49.444;11.054;2022-10-31T02:40:33;12.87;;;7.10;;
5345;SDS011;2695;49.444;11.054;2022-10-31T02:43:09;12.93;;;7.30;;
5345;SDS011;2695;49.444;11.054;2022-10-31T02:45:47;14.33;;;7.33;;
5345;SDS011;2695;49.444;11.054;2022-10-31T02:48:24;8.93;;;6.40;;
5345;SDS011;2695;49.444;11.054;2022-10-31T02:50:55;10.37;;;5.90;;
5345;SDS011;2695;49.444;11.054;2022-10-31T02:53:26;17.77;;;7.90;;
5345;SDS011;2695;49.444;11.054;2022-10-31T02:56:01;12.10;;;7.23;;
5345;SDS011;2695;49.444;11.054;2022-10-31T02:58:32;12.80;;;7.40;;
5345;SDS011;2695;49.444;11.054;2022-10-31T03:04:13;11.30;;;6.50;;
5345;SDS011;2695;49.444;11.054;2022-10-31T03:06:52;9.30;;;5.60;;
5345;SDS011;2695;49.444;11.054;2022-10-31T03:09:26;14.50;;;5.40;;
5345;SDS011;2695;49.444;11.054;2022-10-31T03:12:03;10.47;;;6.27;;
5345;SDS011;2695;49.444;11.054;2022-10-31T03:14:38;9.23;;;5.63;;
5345;SDS011;2695;49.444;11.054;2022-10-31T03:17:13;7.53;;;5.20;;
5345;SDS011;2695;49.444;11.054;2022-10-31T03:19:49;7.47;;;5.40;;
5345;SDS011;2695;49.444;11.054;2022-10-31T03:22:25;10.03;;;5.50;;
5345;SDS011;2695;49.444;11.054;2022-10-31T03:24:56;8.60;;;5.70;;
5345;SDS011;2695;49.444;11.054;2022-10-31T03:27:28;7.93;;;5.40;;
5345;SDS011;2695;49.444;11.054;2022-10-31T03:30:03;10.40;;;7.30;;
5345;SDS011;2695;49.444;11.054;2022-10-31T03:32:41;14.63;;;6.20;;
5345;SDS011;2695;49.444;11.054;2022-10-31T03:35:18;14.77;;;6.70;;
5345;SDS011;2695;49.444;11.054;2022-10-31T03:37:50;13.60;;;6.77;;
5345;SDS011;2695;49.444;11.054;2022-10-31T03:40:21;12.27;;;7.40;;
5345;SDS011;2695;49.444;11.054;2022-10-31T03:42:53;12.53;;;6.87;;
5345;SDS011;2695;49.444;11.054;2022-10-31T03:45:25;10.53;;;7.37;;
5345;SDS011;2695;49.444;11.054;2022-10-31T03:47:57;9.03;;;7.07;;
5345;SDS011;2695;49.444;11.054;2022-10-31T03:50:30;13.10;;;6.97;;
5345;SDS011;2695;49.444;11.054;2022-10-31T03:53:07;12.67;;;7.50;;
5345;SDS011;2695;49.444;11.054;2022-10-31T03:55:40;11.53;;;6.50;;
5345;SDS011;2695;49.444;11.054;2022-10-31T03:58:17;19.43;;;8.17;;
5345;SDS011;2695;49.444;11.054;2022-10-31T04:00:50;11.07;;;6.73;;
5345;SDS011;2695;49.444;11.054;2022-10-31T04:03:20;9.77;;;6.53;;
5345;SDS011;2695;49.444;11.054;2022-10-31T04:05:55;12.33;;;8.10;;
5345;SDS011;2695;49.444;11.054;2022-10-31T04:08:30;12.73;;;7.43;;
5345;SDS011;2695;49.444;11.054;2022-10-31T04:11:01;11.60;;;7.10;;
5345;SDS011;2695;49.444;11.054;2022-10-31T04:13:32;13.53;;;6.57;;
5345;SDS011;2695;49.444;11.054;2022-10-31T04:16:02;12.03;;;7.63;;
5345;SDS011;2695;49.444;11.054;2022-10-31T04:18:31;11.93;;;7.57;;
5345;SDS011;2695;49.444;11.054;2022-10-31T04:21:01;12.30;;;6.63;;
5345;SDS011;2695;49.444;11.054;2022-10-31T04:23:31;13.80;;;8.33;;
5345;SDS011;2695;49.444;11.054;2022-10-31T04:26:01;12.33;;;7.47;;
5345;SDS011;2695;49.444;11.054;2022-10-31T04:28:29;10.67;;;6.63;;
5345;SDS011;2695;49.444;11.054;2022-10-31T04:30:59;9.77;;;7.73;;
5345;SDS011;2695;49.444;11.054;2022-10-31T04:33:27;11.63;;;6.70;;
5345;SDS011;2695;49.444;11.054;2022-10-31T04:35:55;21.63;;;8.27;;
5345;SDS011;2695;49.444;11.054;2022-10-31T04:38:25;16.43;;;7.27;;
5345;SDS011;2695;49.444;11.054;2022-10-31T04:40:53;8.63;;;7.10;;
5345;SDS011;2695;49.444;11.054;2022-10-31T04:43:21;18.23;;;7.03;;
5345;SDS011;2695;49.444;11.054;2022-10-31T04:45:49;8.30;;;6.73;;
5345;SDS011;2695;49.444;11.054;2022-10-31T04:48:17;12.67;;;7.17;;
5345;SDS011;2695;49.444;11.054;2022-10-31T04:50:45;12.93;;;7.57;;
5345;SDS011;2695;49.444;11.054;2022-10-31T04:53:13;20.73;;;7.73;;
5345;SDS011;2695;49.444;11.054;2022-10-31T04:55:42;15.30;;;7.70;;
5345;SDS011;2695;49.444;11.054;2022-10-31T04:58:10;8.93;;;6.97;;
5345;SDS011;2695;49.444;11.054;2022-10-31T05:00:38;14.80;;;6.47;;
5345;SDS011;2695;49.444;11.054;2022-10-31T05:03:06;15.87;;;7.00;;
5345;SDS011;2695;49.444;11.054;2022-10-31T05:05:35;12.73;;;6.90;;
5345;SDS011;2695;49.444;11.054;2022-10-31T05:08:03;10.13;;;6.73;;
5345;SDS011;2695;49.444;11.054;2022-10-31T05:10:31;14.40;;;6.47;;
5345;SDS011;2695;49.444;11.054;2022-10-31T05:13:01;10.83;;;5.63;;
5345;SDS011;2695;49.444;11.054;2022-10-31T05:15:31;10.80;;;6.17;;
5345;SDS011;2695;49.444;11.054;2022-10-31T05:18:00;9.97;;;5.90;;
5345;SDS011;2695;49.444;11.054;2022-10-31T05:20:29;10.43;;;6.30;;
5345;SDS011;2695;49.444;11.054;2022-10-31T05:22:58;12.13;;;6.13;;
5345;SDS011;2695;49.444;11.054;2022-10-31T05:25:27;11.13;;;6.60;;
5345;SDS011;2695;49.444;11.054;2022-10-31T05:27:56;11.67;;;7.10;;
5345;SDS011;2695;49.444;11.054;2022-10-31T05:30:27;9.80;;;5.10;;
5345;SDS011;2695;49.444;11.054;2022-10-31T05:32:56;12.00;;;7.13;;
5345;SDS011;2695;49.444;11.054;2022-10-31T05:35:25;26.70;;;7.00;;
5345;SDS011;2695;49.444;11.054;2022-10-31T05:37:55;15.53;;;7.27;;
5345;SDS011;2695;49.444;11.054;2022-10-31T05:40:24;13.33;;;6.90;;
5345;SDS011;2695;49.444;11.054;2022-10-31T05:42:54;12.33;;;7.50;;
5345;SDS011;2695;49.444;11.054;2022-10-31T05:45:26;13.63;;;6.37;;
5345;SDS011;2695;49.444;11.054;2022-10-31T05:47:54;12.90;;;8.00;;
5345;SDS011;2695;49.444;11.054;2022-10-31T05:50:26;11.37;;;7.03;;
5345;SDS011;2695;49.444;11.054;2022-10-31T05:52:55;14.10;;;8.70;;
5345;SDS011;2695;49.444;11.054;2022-10-31T05:55:25;10.13;;;7.00;;
5345;SDS011;2695;49.444;11.054;2022-10-31T05:57:54;18.00;;;7.90;;
5345;SDS011;2695;49.444;11.054;2022-10-31T06:00:23;13.07;;;8.70;;
5345;SDS011;2695;49.444;11.054;2022-10-31T06:02:58;13.67;;;7.77;;
5345;SDS011;2695;49.444;11.054;2022-10-31T06:05:27;15.20;;;8.27;;
5345;SDS011;2695;49.444;11.054;2022-10-31T06:07:55;18.03;;;7.70;;
5345;SDS011;2695;49.444;11.054;2022-10-31T06:10:27;10.30;;;7.17;;
5345;SDS011;2695;49.444;11.054;2022-10-31T06:12:56;13.03;;;8.50;;
5345;SDS011;2695;49.444;11.054;2022-10-31T06:15:25;15.23;;;8.47;;
5345;SDS011;2695;49.444;11.054;2022-10-31T06:17:59;13.77;;;7.50;;
5345;SDS011;2695;49.444;11.054;2022-10-31T06:20:29;24.53;;;8.40;;
5345;SDS011;2695;49.444;11.054;2022-10-31T06:22:57;15.93;;;8.00;;
5345;SDS011;2695;49.444;11.054;2022-10-31T06:25:26;14.17;;;7.93;;
5345;SDS011;2695;49.444;11.054;2022-10-31T06:27:54;16.67;;;7.73;;
5345;SDS011;2695;49.444;11.054;2022-10-31T06:30:23;16.93;;;7.80;;
5345;SDS011;2695;49.444;11.054;2022-10-31T06:32:52;14.90;;;7.70;;
5345;SDS011;2695;49.444;11.054;2022-10-31T06:35:21;12.90;;;7.90;;
5345;SDS011;2695;49.444;11.054;2022-10-31T06:37:53;11.00;;;6.43;;
5345;SDS011;2695;49.444;11.054;2022-10-31T06:40:21;16.13;;;7.40;;
5345;SDS011;2695;49.444;11.054;2022-10-31T06:42:55;14.63;;;7.00;;
5345;SDS011;2695;49.444;11.054;2022-10-31T06:45:24;11.90;;;7.60;;
5345;SDS011;2695;49.444;11.054;2022-10-31T06:47:52;13.17;;;6.80;;
5345;SDS011;2695;49.444;11.054;2022-10-31T06:50:42;22.13;;;7.30;;
5345;SDS011;2695;49.444;11.054;2022-10-31T06:53:10;14.33;;;7.67;;
5345;SDS011;2695;49.444;11.054;2022-10-31T06:55:39;21.23;;;8.83;;
5345;SDS011;2695;49.444;11.054;2022-10-31T06:58:08;20.77;;;8.10;;
5345;SDS011;2695;49.444;11.054;2022-10-31T07:00:39;14.17;;;7.83;;
5345;SDS011;2695;49.444;11.054;2022-10-31T07:03:09;14.67;;;8.73;;
5345;SDS011;2695;49.444;11.054;2022-10-31T07:05:39;11.03;;;6.70;;
5345;SDS011;2695;49.444;11.054;2022-10-31T07:08:10;16.17;;;7.63;;
5345;SDS011;2695;49.444;11.054;2022-10-31T07:10:40;14.80;;;7.43;;
5345;SDS011;2695;49.444;11.054;2022-10-31T07:13:11;15.00;;;7.57;;
5345;SDS011;2695;49.444;11.054;2022-10-31T07:15:42;13.00;;;7.13;;
5345;SDS011;2695;49.444;11.054;2022-10-31T07:18:24;17.40;;;8.77;;
5345;SDS011;2695;49.444;11.054;2022-10-31T07:20:53;18.63;;;11.40;;
5345;SDS011;2695;49.444;11.054;2022-10-31T07:23:21;18.00;;;9.00;;
5345;SDS011;2695;49.444;11.054;2022-10-31T07:25:54;21.70;;;8.80;;
5345;SDS011;2695;49.444;11.054;2022-10-31T07:28:23;16.10;;;8.90;;
5345;SDS011;2695;49.444;11.054;2022-10-31T07:30:51;13.30;;;7.80;;
5345;SDS011;2695;49.444;11.054;2022-10-31T07:33:20;12.20;;;7.17;;
5345;SDS011;2695;49.444;11.054;2022-10-31T07:35:49;11.73;;;7.30;;
5345;SDS011;2695;49.444;11.054;2022-10-31T07:38:18;23.50;;;8.20;;
5345;SDS011;2695;49.444;11.054;2022-10-31T07:40:50;24.53;;;7.03;;
5345;SDS011;2695;49.444;11.054;2022-10-31T07:43:28;10.43;;;6.77;;
5345;SDS011;2695;49.444;11.054;2022-10-31T07:45:58;13.90;;;6.87;;
5345;SDS011;2695;49.444;11.054;2022-10-31T07:48:31;12.30;;;6.85;;
5345;SDS011;2695;49.444;11.054;2022-10-31T07:51:01;16.98;;;8.02;;
5345;SDS011;2695;49.444;11.054;2022-10-31T07:53:33;13.90;;;7.72;;
5345;SDS011;2695;49.444;11.054;2022-10-31T07:56:18;14.68;;;7.03;;
5345;SDS011;2695;49.444;11.054;2022-10-31T07:58:53;15.80;;;8.25;;
5345;SDS011;2695;49.444;11.054;2022-10-31T08:01:42;17.30;;;7.78;;
5345;SDS011;2695;49.444;11.054;2022-10-31T08:04:10;15.15;;;7.70;;
5345;SDS011;2695;49.444;11.054;2022-10-31T08:06:38;20.23;;;7.95;;
5345;SDS011;2695;49.444;11.054;2022-10-31T08:09:08;12.10;;;6.90;;
5345;SDS011;2695;49.444;11.054;2022-10-31T08:11:36;23.08;;;11.18;;
5345;SDS011;2695;49.444;11.054;2022-10-31T08:14:04;13.18;;;7.18;;
5345;SDS011;2695;49.444;11.054;2022-10-31T08:16:32;13.13;;;7.65;;
5345;SDS011;2695;49.444;11.054;2022-10-31T08:19:00;11.10;;;7.03;;
5345;SDS011;2695;49.444;11.054;2022-10-31T08:21:28;14.15;;;8.88;;
5345;SDS011;2695;49.444;11.054;2022-10-31T08:23:57;11.85;;;7.78;;
5345;SDS011;2695;49.444;11.054;2022-10-31T08:26:26;15.48;;;8.57;;
5345;SDS011;2695;49.444;11.054;2022-10-31T08:28:55;17.45;;;7.65;;
5345;SDS011;2695;49.444;11.054;2022-10-31T08:31:23;17.48;;;7.57;;
5345;SDS011;2695;49.444;11.054;2022-10-31T08:33:59;18.70;;;7.72;;
5345;SDS011;2695;49.444;11.054;2022-10-31T08:36:27;14.48;;;7.60;;
5345;SDS011;2695;49.444;11.054;2022-10-31T08:38:56;19.10;;;8.93;;
5345;SDS011;2695;49.444;11.054;2022-10-31T08:41:29;18.67;;;7.43;;
5345;SDS011;2695;49.444;11.054;2022-10-31T08:43:57;19.02;;;7.40;;
5345;SDS011;2695;49.444;11.054;2022-10-31T08:46:25;17.35;;;8.40;;
5345;SDS011;2695;49.444;11.054;2022-10-31T08:48:54;14.82;;;7.43;;
5345;SDS011;2695;49.444;11.054;2022-10-31T08:51:22;16.10;;;7.65;;
5345;SDS011;2695;49.444;11.054;2022-10-31T08:53:50;13.95;;;7.40;;
5345;SDS011;2695;49.444;11.054;2022-10-31T08:56:18;16.92;;;6.43;;
5345;SDS011;2695;49.444;11.054;2022-10-31T08:58:47;18.33;;;7.45;;
5345;SDS011;2695;49.444;11.054;2022-10-31T09:01:16;13.40;;;7.13;;
5345;SDS011;2695;49.444;11.054;2022-10-31T09:03:45;11.45;;;6.40;;
5345;SDS011;2695;49.444;11.054;2022-10-31T09:06:13;14.57;;;6.45;;
5345;SDS011;2695;49.444;11.054;2022-10-31T09:08:41;12.95;;;7.07;;
5345;SDS011;2695;49.444;11.054;2022-10-31T09:11:09;10.07;;;7.47;;
5345;SDS011;2695;49.444;11.054;2022-10-31T09:13:37;11.18;;;6.25;;
5345;SDS011;2695;49.444;11.054;2022-10-31T09:16:08;10.25;;;7.53;;
5345;SDS011;2695;49.444;11.054;2022-10-31T09:18:36;11.60;;;7.10;;
5345;SDS011;2695;49.444;11.054;2022-10-31T09:21:04;12.18;;;7.25;;
5345;SDS011;2695;49.444;11.054;2022-10-31T09:23:32;14.73;;;7.25;;
5345;SDS011;2695;49.444;11.054;2022-10-31T09:26:00;12.75;;;6.85;;
5345;SDS011;2695;49.444;11.054;2022-10-31T09:28:29;11.48;;;7.85;;
5345;SDS011;2695;49.444;11.054;2022-10-31T09:30:57;12.75;;;7.57;;
5345;SDS011;2695;49.444;11.054;2022-10-31T09:33:28;21.65;;;6.78;;
5345;SDS011;2695;49.444;11.054;2022-10-31T09:35:57;8.63;;;6.78;;
5345;SDS011;2695;49.444;11.054;2022-10-31T09:38:25;9.25;;;6.85;;
5345;SDS011;2695;49.444;11.054;2022-10-31T09:40:55;13.98;;;7.20;;
5345;SDS011;2695;49.444;11.054;2022-10-31T09:43:33;15.43;;;7.00;;
5345;SDS011;2695;49.444;11.054;2022-10-31T09:46:12;14.75;;;6.63;;
5345;SDS011;2695;49.444;11.054;2022-10-31T09:48:51;21.95;;;7.47;;
5345;SDS011;2695;49.444;11.054;2022-10-31T09:51:29;17.83;;;7.80;;
5345;SDS011;2695;49.444;11.054;2022-10-31T09:54:02;9.45;;;7.18;;
5345;SDS011;2695;49.444;11.054;2022-10-31T09:56:33;16.45;;;8.38;;
5345;SDS011;2695;49.444;11.054;2022-10-31T09:59:02;14.88;;;8.13;;
5345;SDS011;2695;49.444;11.054;2022-10-31T10:01:34;14.32;;;7.95;;
5345;SDS011;2695;49.444;11.054;2022-10-31T10:04:16;17.70;;;8.13;;
5345;SDS011;2695;49.444;11.054;2022-10-31T10:07:02;13.18;;;7.85;;
5345;SDS011;2695;49.444;11.054;2022-10-31T10:09:35;13.07;;;7.45;;
5345;SDS011;2695;49.444;11.054;2022-10-31T10:12:06;12.55;;;7.68;;
5345;SDS011;2695;49.444;11.054;2022-10-31T10:14:44;18.17;;;11.38;;
5345;SDS011;2695;49.444;11.054;2022-10-31T10:17:25;15.95;;;9.05;;
5345;SDS011;2695;49.444;11.054;2022-10-31T10:20:10;23.73;;;8.32;;
5345;SDS011;2695;49.444;11.054;2022-10-31T10:22:50;18.38;;;8.00;;
5345;SDS011;2695;49.444;11.054;2022-10-31T10:25:25;16.92;;;8.27;;
5345;SDS011;2695;49.444;11.054;2022-10-31T10:28:03;16.13;;;7.95;;
5345;SDS011;2695;49.444;11.054;2022-10-31T10:30:42;14.80;;;7.97;;
5345;SDS011;2695;49.444;11.054;2022-10-31T10:33:14;16.55;;;7.97;;
5345;SDS011;2695;49.444;11.054;2022-10-31T10:35:49;16.38;;;7.90;;
5345;SDS011;2695;49.444;11.054;2022-10-31T10:38:20;18.80;;;7.72;;
5345;SDS011;2695;49.444;11.054;2022-10-31T10:40:55;15.23;;;7.60;;
5345;SDS011;2695;49.444;11.054;2022-10-31T10:43:26;15.50;;;7.43;;
5345;SDS011;2695;49.444;11.054;2022-10-31T10:46:06;15.10;;;8.23;;
5345;SDS011;2695;49.444;11.054;2022-10-31T10:49:04;15.70;;;7.03;;
5345;SDS011;2695;49.444;11.054;2022-10-31T10:51:43;13.43;;;8.25;;
5345;SDS011;2695;49.444;11.054;2022-10-31T10:54:41;14.52;;;8.10;;
5345;SDS011;2695;49.444;11.054;2022-10-31T10:57:22;9.95;;;7.15;;
5345;SDS011;2695;49.444;11.054;2022-10-31T10:59:59;10.50;;;7.43;;
5345;SDS011;2695;49.444;11.054;2022-10-31T11:02:31;10.73;;;7.18;;
5345;SDS011;2695;49.444;11.054;2022-10-31T11:05:00;10.75;;;7.30;;
5345;SDS011;2695;49.444;11.054;2022-10-31T11:07:38;12.98;;;7.30;;
5345;SDS011;2695;49.444;11.054;2022-10-31T11:10:11;10.75;;;7.25;;
5345;SDS011;2695;49.444;11.054;2022-10-31T11:12:42;21.05;;;7.45;;
5345;SDS011;2695;49.444;11.054;2022-10-31T11:15:18;11.18;;;7.00;;
5345;SDS011;2695;49.444;11.054;2022-10-31T11:17:48;14.00;;;8.30;;
5345;SDS011;2695;49.444;11.054;2022-10-31T11:20:27;10.65;;;7.70;;
5345;SDS011;2695;49.444;11.054;2022-10-31T11:23:04;10.80;;;6.80;;
5345;SDS011;2695;49.444;11.054;2022-10-31T11:25:49;15.88;;;8.32;;
5345;SDS011;2695;49.444;11.054;2022-10-31T11:28:22;15.98;;;8.73;;
5345;SDS011;2695;49.444;11.054;2022-10-31T11:30:52;13.40;;;6.75;;
5345;SDS011;2695;49.444;11.054;2022-10-31T11:33:24;14.38;;;7.50;;
5345;SDS011;2695;49.444;11.054;2022-10-31T11:35:57;12.38;;;7.43;;
5345;SDS011;2695;49.444;11.054;2022-10-31T11:38:29;12.00;;;6.90;;
5345;SDS011;2695;49.444;11.054;2022-10-31T11:41:03;17.23;;;7.10;;
5345;SDS011;2695;49.444;11.054;2022-10-31T11:43:38;15.77;;;7.40;;
5345;SDS011;2695;49.444;11.054;2022-10-31T11:46:15;11.55;;;8.07;;
5345;SDS011;2695;49.444;11.054;2022-10-31T11:48:48;18.15;;;7.18;;
5345;SDS011;2695;49.444;11.054;2022-10-31T11:51:22;15.27;;;7.72;;
5345;SDS011;2695;49.444;11.054;2022-10-31T11:53:55;17.77;;;7.10;;
5345;SDS011;2695;49.444;11.054;2022-10-31T11:56:37;13.90;;;7.22;;
5345;SDS011;2695;49.444;11.054;2022-10-31T11:59:14;12.48;;;6.70;;
5345;SDS011;2695;49.444;11.054;2022-10-31T12:01:46;15.35;;;7.65;;
5345;SDS011;2695;49.444;11.054;2022-10-31T12:04:35;17.10;;;7.47;;
5345;SDS011;2695;49.444;11.054;2022-10-31T12:07:07;8.90;;;6.80;;
5345;SDS011;2695;49.444;11.054;2022-10-31T12:09:36;19.15;;;7.10;;
5345;SDS011;2695;49.444;11.054;2022-10-31T12:12:11;12.23;;;7.60;;
5345;SDS011;2695;49.444;11.054;2022-10-31T12:14:52;20.10;;;7.13;;
5345;SDS011;2695;49.444;11.054;2022-10-31T12:17:28;12.13;;;6.90;;
5345;SDS011;2695;49.444;11.054;2022-10-31T12:20:03;8.80;;;6.90;;
5345;SDS011;2695;49.444;11.054;2022-10-31T12:22:39;13.73;;;8.23;;
5345;SDS011;2695;49.444;11.054;2022-10-31T12:25:21;9.68;;;7.18;;
5345;SDS011;2695;49.444;11.054;2022-10-31T12:28:02;18.73;;;6.90;;
5345;SDS011;2695;49.444;11.054;2022-10-31T12:30:46;12.17;;;6.80;;
5345;SDS011;2695;49.444;11.054;2022-10-31T12:33:25;10.50;;;7.00;;
5345;SDS011;2695;49.444;11.054;2022-10-31T12:36:26;12.60;;;6.77;;
5345;SDS011;2695;49.444;11.054;2022-10-31T12:39:11;13.63;;;7.23;;
5345;SDS011;2695;49.444;11.054;2022-10-31T12:41:52;18.00;;;7.27;;
5345;SDS011;2695;49.444;11.054;2022-10-31T12:44:40;15.97;;;6.90;;
5345;SDS011;2695;49.444;11.054;2022-10-31T12:50:24;11.20;;;6.47;;
5345;SDS011;2695;49.444;11.054;2022-10-31T12:53:00;12.03;;;6.43;;
5345;SDS011;2695;49.444;11.054;2022-10-31T12:55:41;11.53;;;6.90;;
5345;SDS011;2695;49.444;11.054;2022-10-31T12:58:21;13.13;;;6.73;;
5345;SDS011;2695;49.444;11.054;2022-10-31T13:00:58;12.23;;;7.70;;
5345;SDS011;2695;49.444;11.054;2022-10-31T13:03:36;13.73;;;7.27;;
5345;SDS011;2695;49.444;11.054;2022-10-31T13:06:13;11.67;;;7.10;;
5345;SDS011;2695;49.444;11.054;2022-10-31T13:08:47;14.10;;;7.40;;
5345;SDS011;2695;49.444;11.054;2022-10-31T13:11:18;11.03;;;7.30;;
5345;SDS011;2695;49.444;11.054;2022-10-31T13:13:52;11.80;;;6.53;;
5345;SDS011;2695;49.444;11.054;2022-10-31T13:16:28;13.27;;;6.37;;
5345;SDS011;2695;49.444;11.054;2022-10-31T13:18:58;13.77;;;6.03;;
5345;SDS011;2695;49.444;11.054;2022-10-31T13:21:34;11.30;;;6.83;;
5345;SDS011;2695;49.444;11.054;2022-10-31T13:24:08;8.97;;;6.17;;
5345;SDS011;2695;49.444;11.054;2022-10-31T13:26:42;18.57;;;6.27;;
5345;SDS011;2695;49.444;11.054;2022-10-31T13:29:33;12.87;;;8.63;;
5345;SDS011;2695;49.444;11.054;2022-10-31T13:32:07;7.77;;;5.90;;
5345;SDS011;2695;49.444;11.054;2022-10-31T13:34:36;11.20;;;6.87;;
5345;SDS011;2695;49.444;11.054;2022-10-31T13:39:51;12.93;;;6.13;;
5345;SDS011;2695;49.444;11.054;2022-10-31T13:42:34;11.43;;;6.50;;
5345;SDS011;2695;49.444;11.054;2022-10-31T13:45:13;12.10;;;6.63;;
5345;SDS011;2695;49.444;11.054;2022-10-31T13:47:42;14.53;;;6.87;;
5345;SDS011;2695;49.444;11.054;2022-10-31T13:50:22;17.97;;;6.73;;
5345;SDS011;2695;49.444;11.054;2022-10-31T13:53:12;16.03;;;6.87;;
5345;SDS011;2695;49.444;11.054;2022-10-31T13:55:46;12.73;;;6.80;;
5345;SDS011;2695;49.444;11.054;2022-10-31T13:58:22;9.73;;;6.50;;
5345;SDS011;2695;49.444;11.054;2022-10-31T14:01:05;12.70;;;7.70;;
5345;SDS011;2695;49.444;11.054;2022-10-31T14:03:44;19.83;;;7.37;;
5345;SDS011;2695;49.444;11.054;2022-10-31T14:06:35;23.73;;;8.23;;
5345;SDS011;2695;49.444;11.054;2022-10-31T14:09:20;14.93;;;6.20;;
5345;SDS011;2695;49.444;11.054;2022-10-31T14:11:51;12.00;;;8.30;;
5345;SDS011;2695;49.444;11.054;2022-10-31T14:14:21;18.07;;;7.40;;
5345;SDS011;2695;49.444;11.054;2022-10-31T14:16:59;11.83;;;6.83;;
5345;SDS011;2695;49.444;11.054;2022-10-31T14:19:28;10.87;;;7.70;;
5345;SDS011;2695;49.444;11.054;2022-10-31T14:22:17;11.73;;;7.37;;
5345;SDS011;2695;49.444;11.054;2022-10-31T14:25:27;15.10;;;7.93;;
5345;SDS011;2695;49.444;11.054;2022-10-31T14:28:31;13.77;;;8.30;;
5345;SDS011;2695;49.444;11.054;2022-10-31T14:31:01;21.63;;;7.60;;
5345;SDS011;2695;49.444;11.054;2022-10-31T14:37:00;18.77;;;8.70;;
5345;SDS011;2695;49.444;11.054;2022-10-31T14:39:44;13.97;;;8.10;;
5345;SDS011;2695;49.444;11.054;2022-10-31T14:42:25;17.47;;;9.50;;
5345;SDS011;2695;49.444;11.054;2022-10-31T14:45:14;15.53;;;8.83;;
5345;SDS011;2695;49.444;11.054;2022-10-31T14:47:52;11.93;;;7.70;;
5345;SDS011;2695;49.444;11.054;2022-10-31T14:50:40;13.67;;;7.33;;
5345;SDS011;2695;49.444;11.054;2022-10-31T14:53:20;13.40;;;7.93;;
5345;SDS011;2695;49.444;11.054;2022-10-31T14:56:01;14.97;;;7.57;;
5345;SDS011;2695;49.444;11.054;2022-10-31T14:59:23;17.93;;;7.53;;
5345;SDS011;2695;49.444;11.054;2022-10-31T15:02:31;13.83;;;8.30;;
5345;SDS011;2695;49.444;11.054;2022-10-31T15:05:15;18.83;;;7.93;;
5345;SDS011;2695;49.444;11.054;2022-10-31T15:07:52;18.50;;;11.13;;
5345;SDS011;2695;49.444;11.054;2022-10-31T15:10:23;33.33;;;19.83;;
5345;SDS011;2695;49.444;11.054;2022-10-31T15:12:53;24.73;;;13.67;;
5345;SDS011;2695;49.444;11.054;2022-10-31T15:15:22;29.00;;;15.73;;
5345;SDS011;2695;49.444;11.054;2022-10-31T15:17:52;16.53;;;10.60;;
5345;SDS011;2695;49.444;11.054;2022-10-31T15:20:36;18.00;;;9.77;;
5345;SDS011;2695;49.444;11.054;2022-10-31T15:23:15;14.67;;;9.47;;
5345;SDS011;2695;49.444;11.054;2022-10-31T15:25:49;12.87;;;8.77;;
5345;SDS011;2695;49.444;11.054;2022-10-31T15:28:28;18.90;;;10.93;;
5345;SDS011;2695;49.444;11.054;2022-10-31T15:31:00;12.90;;;8.60;;
5345;SDS011;2695;49.444;11.054;2022-10-31T15:33:45;23.13;;;10.70;;
5345;SDS011;2695;49.444;11.054;2022-10-31T15:36:27;15.10;;;9.97;;
5345;SDS011;2695;49.444;11.054;2022-10-31T15:39:02;17.23;;;9.40;;
5345;SDS011;2695;49.444;11.054;2022-10-31T15:41:39;19.90;;;10.23;;
5345;SDS011;2695;49.444;11.054;2022-10-31T15:44:27;35.93;;;23.40;;